createdAt,value
2022-12-08T00:00:46.712Z,3.97
2022-12-08T00:03:19.207Z,3.96
2022-12-08T00:06:01.859Z,3.95
2022-12-08T00:08:43.879Z,3.96
2022-12-08T00:11:15.009Z,3.92
2022-12-08T00:13:44.759Z,3.90
2022-12-08T00:16:14.819Z,3.89
2022-12-08T00:18:47.042Z,3.89
2022-12-08T00:21:16.634Z,3.90
2022-12-08T00:23:46.229Z,3.92
2022-12-08T00:26:15.806Z,3.91
2022-12-08T00:28:45.360Z,3.93
2022-12-08T00:31:15.261Z,3.92
2022-12-08T00:33:47.513Z,3.93
2022-12-08T00:36:17.738Z,3.93
2022-12-08T00:38:48.419Z,3.93
2022-12-08T00:41:19.006Z,3.94
2022-12-08T00:43:48.573Z,3.94
2022-12-08T00:46:18.267Z,3.95
2022-12-08T00:48:50.432Z,3.96
2022-12-08T00:51:20.071Z,3.96
2022-12-08T00:53:49.642Z,3.97
2022-12-08T00:56:19.291Z,3.96
2022-12-08T00:58:49.985Z,3.97
2022-12-08T01:01:19.826Z,3.96
2022-12-08T01:03:52.171Z,3.94
2022-12-08T01:06:21.860Z,3.94
2022-12-08T01:08:51.527Z,3.95
2022-12-08T01:11:22.328Z,3.94
2022-12-08T01:13:52.135Z,3.93
2022-12-08T01:16:23.006Z,3.92
2022-12-08T01:18:55.355Z,3.89
2022-12-08T01:21:24.986Z,3.86
2022-12-08T01:23:54.806Z,3.85
2022-12-08T01:26:24.898Z,3.85
2022-12-08T01:28:54.516Z,3.86
2022-12-08T01:31:25.013Z,3.87
2022-12-08T01:33:58.975Z,3.89
2022-12-08T01:36:30.251Z,3.90
2022-12-08T01:39:01.305Z,3.92
2022-12-08T01:41:33.400Z,3.92
2022-12-08T01:44:04.609Z,3.93
2022-12-08T01:46:35.936Z,3.94
2022-12-08T01:49:12.723Z,3.95
2022-12-08T01:51:47.106Z,3.97
2022-12-08T01:54:17.048Z,3.98
2022-12-08T01:56:52.428Z,3.98
2022-12-08T01:59:22.200Z,3.96
2022-12-08T02:01:53.885Z,3.97
2022-12-08T02:04:26.155Z,3.94
2022-12-08T02:06:56.560Z,3.91
2022-12-08T02:09:27.649Z,3.89
2022-12-08T02:11:59.044Z,3.89
2022-12-08T02:14:28.980Z,3.88
2022-12-08T02:17:04.480Z,3.87
2022-12-08T02:19:59.713Z,3.87
2022-12-08T02:22:33.151Z,3.85
2022-12-08T02:25:08.698Z,3.84
2022-12-08T02:27:45.822Z,3.86
2022-12-08T02:30:21.934Z,3.86
2022-12-08T02:33:19.008Z,3.87
2022-12-08T02:35:58.151Z,3.87
2022-12-08T02:38:34.598Z,3.87
2022-12-08T02:41:12.023Z,3.86
2022-12-08T02:43:45.140Z,3.86
2022-12-08T02:46:18.566Z,3.86
2022-12-08T02:48:48.233Z,3.84
2022-12-08T02:51:20.744Z,3.85
2022-12-08T02:53:50.943Z,3.85
2022-12-08T02:56:33.915Z,3.87
2022-12-08T02:59:15.189Z,3.87
2022-12-08T03:01:58.498Z,3.88
2022-12-08T03:04:34.048Z,3.90
2022-12-08T03:07:09.792Z,3.88
2022-12-08T03:09:43.115Z,3.88
2022-12-08T03:12:17.055Z,3.88
2022-12-08T03:14:49.765Z,3.88
2022-12-08T03:17:20.404Z,3.87
2022-12-08T03:19:51.124Z,3.85
2022-12-08T03:22:26.836Z,3.88
2022-12-08T03:24:56.855Z,3.87
2022-12-08T03:27:28.618Z,3.88
2022-12-08T03:29:59.526Z,3.88
2022-12-08T03:32:33.118Z,3.88
2022-12-08T03:35:04.971Z,3.88
2022-12-08T03:37:37.634Z,3.89
2022-12-08T03:40:08.203Z,3.90
2022-12-08T03:42:37.788Z,3.91
2022-12-08T03:45:08.237Z,3.93
2022-12-08T03:47:37.797Z,3.94
2022-12-08T03:50:08.805Z,3.94
2022-12-08T03:52:41.020Z,3.94
2022-12-08T03:55:11.135Z,3.90
2022-12-08T03:57:40.895Z,3.91
2022-12-08T04:00:14.984Z,3.92
2022-12-08T04:02:44.822Z,3.97
2022-12-08T04:05:14.420Z,4.00
2022-12-08T04:07:46.660Z,4.03
2022-12-08T04:10:16.340Z,4.04
2022-12-08T04:12:45.880Z,4.04
2022-12-08T04:15:15.474Z,4.05
2022-12-08T04:17:45.063Z,4.06
2022-12-08T04:20:15.000Z,4.06
2022-12-08T04:22:47.226Z,4.06
2022-12-08T04:25:17.106Z,4.06
2022-12-08T04:27:46.697Z,4.06
2022-12-08T04:30:16.545Z,4.05
2022-12-08T04:32:47.653Z,4.04
2022-12-08T04:35:17.486Z,4.04
2022-12-08T04:37:49.700Z,4.04
2022-12-08T04:40:19.320Z,4.03
2022-12-08T04:42:49.102Z,4.04
2022-12-08T04:45:19.145Z,4.06
2022-12-08T04:47:49.474Z,4.05
2022-12-08T04:50:19.235Z,4.06
2022-12-08T04:52:51.453Z,4.06
2022-12-08T04:55:21.145Z,4.05
2022-12-08T04:57:51.018Z,4.05
2022-12-08T05:00:21.488Z,4.02
2022-12-08T05:02:51.130Z,4.01
2022-12-08T05:05:20.935Z,4.00
2022-12-08T05:07:53.746Z,3.99
2022-12-08T05:10:23.390Z,3.99
2022-12-08T05:12:52.954Z,3.96
2022-12-08T05:15:22.674Z,3.97
2022-12-08T05:17:52.361Z,3.94
2022-12-08T05:20:22.390Z,3.93
2022-12-08T05:22:54.621Z,3.93
2022-12-08T05:25:24.199Z,3.92
2022-12-08T05:28:06.218Z,3.91
2022-12-08T05:30:41.273Z,3.87
2022-12-08T05:33:11.074Z,3.84
2022-12-08T05:35:40.648Z,3.82
2022-12-08T05:38:13.169Z,3.81
2022-12-08T05:40:43.580Z,3.79
2022-12-08T05:43:13.643Z,3.80
2022-12-08T05:45:43.349Z,3.80
2022-12-08T05:48:13.146Z,3.79
2022-12-08T05:50:42.811Z,3.79
2022-12-08T05:53:15.003Z,3.81
2022-12-08T05:55:44.534Z,3.83
2022-12-08T05:58:15.443Z,3.86
2022-12-08T06:00:45.235Z,3.87
2022-12-08T06:03:15.414Z,3.87
2022-12-08T06:05:45.798Z,3.89
2022-12-08T06:08:18.193Z,3.89
2022-12-08T06:10:48.311Z,3.93
2022-12-08T06:13:18.067Z,3.98
2022-12-08T06:15:47.599Z,4.00
2022-12-08T06:18:17.143Z,4.03
2022-12-08T06:20:46.715Z,4.04
2022-12-08T06:23:18.845Z,4.05
2022-12-08T06:25:48.467Z,4.03
2022-12-08T06:28:18.004Z,4.02
2022-12-08T06:30:47.613Z,4.01
2022-12-08T06:33:17.398Z,3.99
2022-12-08T06:35:47.004Z,3.97
2022-12-08T06:38:19.140Z,3.93
2022-12-08T06:40:56.201Z,3.95
2022-12-08T06:43:26.256Z,3.93
2022-12-08T06:45:55.914Z,3.94
2022-12-08T06:48:26.050Z,3.93
2022-12-08T06:50:55.922Z,3.94
2022-12-08T06:53:28.051Z,3.93
2022-12-08T06:55:59.795Z,3.93
2022-12-08T06:58:29.720Z,3.93
2022-12-08T07:00:59.319Z,3.92
2022-12-08T07:03:28.923Z,3.92
2022-12-08T07:06:03.742Z,3.89
2022-12-08T07:08:37.766Z,3.89
2022-12-08T07:11:15.278Z,3.89
2022-12-08T07:13:47.825Z,3.86
2022-12-08T07:16:17.443Z,3.85
2022-12-08T07:18:47.080Z,3.85
2022-12-08T07:21:17.599Z,3.85
2022-12-08T07:23:57.345Z,3.85
2022-12-08T07:26:28.155Z,3.84
2022-12-08T07:28:57.720Z,3.84
2022-12-08T07:31:28.970Z,3.85
2022-12-08T07:33:59.288Z,3.82
2022-12-08T07:36:29.288Z,3.83
2022-12-08T07:39:01.636Z,3.84
2022-12-08T07:41:31.199Z,3.86
2022-12-08T07:44:00.783Z,3.88
2022-12-08T07:46:30.413Z,3.92
2022-12-08T07:49:00.112Z,3.92
2022-12-08T07:51:29.595Z,3.90
2022-12-08T07:54:01.725Z,3.89
2022-12-08T07:56:31.316Z,3.88
2022-12-08T07:59:00.856Z,3.88
2022-12-08T08:01:32.130Z,3.86
2022-12-08T08:04:04.570Z,3.86
2022-12-08T08:06:34.797Z,3.87
2022-12-08T08:09:07.169Z,3.86
2022-12-08T08:11:36.728Z,3.86
2022-12-08T08:14:06.599Z,3.84
2022-12-08T08:16:38.607Z,3.82
2022-12-08T08:19:08.491Z,3.79
2022-12-08T08:21:46.292Z,3.78
2022-12-08T08:24:18.725Z,3.76
2022-12-08T08:26:48.299Z,3.73
2022-12-08T08:29:17.894Z,3.69
2022-12-08T08:31:47.466Z,3.66
2022-12-08T08:34:17.054Z,3.64
2022-12-08T08:36:46.653Z,3.63
2022-12-08T08:39:18.977Z,3.65
2022-12-08T08:41:48.584Z,3.63
2022-12-08T08:44:18.323Z,3.63
2022-12-08T08:46:47.968Z,3.62
2022-12-08T08:49:18.739Z,3.61
2022-12-08T08:51:48.377Z,3.59
2022-12-08T08:54:20.556Z,3.60
2022-12-08T08:56:50.877Z,3.63
2022-12-08T08:59:20.380Z,3.66
2022-12-08T09:01:50.025Z,3.69
2022-12-08T09:04:19.732Z,3.71
2022-12-08T09:06:49.595Z,3.75
2022-12-08T09:09:21.748Z,3.77
2022-12-08T09:11:51.300Z,3.81
2022-12-08T09:14:21.064Z,3.83
2022-12-08T09:16:50.640Z,3.89
2022-12-08T09:19:20.242Z,3.95
2022-12-08T09:21:49.835Z,4.01
2022-12-08T09:24:23.227Z,4.06
2022-12-08T09:26:52.821Z,4.13
2022-12-08T09:29:22.485Z,4.16
2022-12-08T09:31:52.302Z,4.19
2022-12-08T09:34:22.022Z,4.22
2022-12-08T09:36:51.673Z,4.21
2022-12-08T09:39:23.820Z,4.23
2022-12-08T09:41:56.059Z,4.24
2022-12-08T09:44:41.016Z,4.28
2022-12-08T09:47:24.021Z,4.30
2022-12-08T09:50:02.232Z,4.30
2022-12-08T09:52:35.916Z,4.31
2022-12-08T09:55:15.340Z,4.33
2022-12-08T09:57:44.891Z,4.33
2022-12-08T10:00:16.256Z,4.31
2022-12-08T10:02:47.255Z,4.31
2022-12-08T10:05:17.670Z,4.32
2022-12-08T10:07:50.659Z,4.33
2022-12-08T10:10:31.340Z,4.37
2022-12-08T10:13:06.454Z,4.41
2022-12-08T10:15:43.486Z,4.46
2022-12-08T10:18:17.300Z,4.50
2022-12-08T10:20:49.516Z,4.53
2022-12-08T10:23:25.574Z,4.53
2022-12-08T10:26:02.482Z,4.55
2022-12-08T10:28:32.152Z,4.59
2022-12-08T10:31:01.750Z,4.63
2022-12-08T10:33:32.247Z,4.63
2022-12-08T10:36:04.906Z,4.64
2022-12-08T10:38:36.541Z,4.64
2022-12-08T10:41:18.207Z,4.64
2022-12-08T10:43:50.537Z,4.62
2022-12-08T10:46:22.397Z,4.61
2022-12-08T10:48:54.408Z,4.57
2022-12-08T10:51:30.552Z,4.58
2022-12-08T10:54:00.176Z,4.57
2022-12-08T10:56:33.516Z,4.57
2022-12-08T10:59:19.460Z,4.60
2022-12-08T11:01:50.411Z,4.63
2022-12-08T11:04:21.653Z,4.67
2022-12-08T11:06:52.725Z,4.70
2022-12-08T11:09:40.421Z,4.73
2022-12-08T11:12:16.271Z,4.72
2022-12-08T11:14:53.987Z,4.72
2022-12-08T11:17:28.512Z,4.70
2022-12-08T11:20:00.203Z,4.69
2022-12-08T11:22:33.939Z,4.68
2022-12-08T11:25:06.070Z,4.68
2022-12-08T11:27:39.957Z,4.68
2022-12-08T11:30:18.364Z,4.67
2022-12-08T11:32:50.814Z,4.70
2022-12-08T11:35:26.088Z,4.74
2022-12-08T11:38:07.871Z,4.79
2022-12-08T11:40:47.957Z,4.81
2022-12-08T11:43:23.530Z,4.86
2022-12-08T11:45:59.233Z,4.90
2022-12-08T11:48:34.719Z,4.98
2022-12-08T11:51:08.173Z,5.06
2022-12-08T11:53:50.435Z,5.14
2022-12-08T11:56:23.567Z,5.21
2022-12-08T11:58:57.681Z,5.27
2022-12-08T12:01:29.398Z,5.31
2022-12-08T12:04:04.916Z,5.34
2022-12-08T12:06:55.773Z,5.37
2022-12-08T12:09:34.884Z,5.39
2022-12-08T12:12:16.733Z,5.43
2022-12-08T12:15:18.712Z,5.46
2022-12-08T12:17:50.836Z,5.46
2022-12-08T12:20:24.242Z,5.47
2022-12-08T12:22:59.548Z,5.49
2022-12-08T12:25:30.089Z,5.54
2022-12-08T12:28:03.160Z,5.59
2022-12-08T12:30:53.131Z,5.61
2022-12-08T12:33:23.433Z,5.61
2022-12-08T12:35:53.064Z,5.60
2022-12-08T12:38:38.419Z,5.60
2022-12-08T12:41:09.088Z,5.57
2022-12-08T12:43:41.306Z,5.53
2022-12-08T12:46:45.280Z,5.48
2022-12-08T12:49:53.355Z,5.43
2022-12-08T12:52:39.646Z,5.38
2022-12-08T12:55:44.373Z,5.38
2022-12-08T12:58:25.081Z,5.34
2022-12-08T13:01:29.676Z,5.33
2022-12-08T13:04:09.663Z,5.32
2022-12-08T13:06:42.907Z,5.31
2022-12-08T13:09:23.709Z,5.30
2022-12-08T13:11:55.486Z,5.27
2022-12-08T13:14:33.799Z,5.27
2022-12-08T13:17:04.511Z,5.26
2022-12-08T13:19:38.885Z,5.23
2022-12-08T13:22:38.332Z,5.21
2022-12-08T13:25:37.757Z,5.19
2022-12-08T13:28:16.731Z,5.15
2022-12-08T13:30:48.034Z,5.14
2022-12-08T13:33:21.028Z,5.14
2022-12-08T13:35:58.005Z,5.14
2022-12-08T13:38:31.030Z,5.13
2022-12-08T13:41:03.623Z,5.07
2022-12-08T13:43:51.313Z,5.03
2022-12-08T13:53:49.516Z,4.91
2022-12-08T13:58:19.642Z,4.82
2022-12-08T14:01:01.558Z,4.80
2022-12-08T14:03:31.490Z,4.79
2022-12-08T14:06:13.422Z,4.80
2022-12-08T14:09:06.665Z,4.79
2022-12-08T14:11:39.420Z,4.78
2022-12-08T14:14:11.703Z,4.74
2022-12-08T14:16:42.658Z,4.72
2022-12-08T14:19:20.540Z,4.70
2022-12-08T14:21:55.899Z,4.69
2022-12-08T14:24:26.220Z,4.68
2022-12-08T14:26:58.632Z,4.65
2022-12-08T14:29:40.918Z,4.62
2022-12-08T14:32:23.776Z,4.56
2022-12-08T14:34:57.947Z,4.52
2022-12-08T14:37:30.822Z,4.49
2022-12-08T14:40:02.553Z,4.43
2022-12-08T14:42:32.882Z,4.40
2022-12-08T14:45:05.703Z,4.38
2022-12-08T14:47:36.927Z,4.36
2022-12-08T14:50:28.791Z,4.33
2022-12-08T14:53:01.508Z,4.31
2022-12-08T14:55:31.804Z,4.30
2022-12-08T14:58:01.418Z,4.29
2022-12-08T15:00:31.400Z,4.28
2022-12-08T15:03:01.059Z,4.27
2022-12-08T15:05:32.640Z,4.24
2022-12-08T15:08:06.458Z,4.24
2022-12-08T15:10:38.099Z,4.20
2022-12-08T15:13:10.302Z,4.17
2022-12-08T15:15:51.728Z,4.15
2022-12-08T15:18:23.035Z,4.11
2022-12-08T15:20:54.470Z,4.07
2022-12-08T15:23:29.639Z,4.04
2022-12-08T15:25:59.646Z,4.02
2022-12-08T15:28:31.453Z,3.99
2022-12-08T15:31:01.644Z,3.95
2022-12-08T15:33:31.226Z,3.93
2022-12-08T15:36:00.789Z,3.89
2022-12-08T15:38:33.055Z,3.84
2022-12-08T15:41:03.704Z,3.79
2022-12-08T15:43:34.436Z,3.73
2022-12-08T15:46:04.017Z,3.69
2022-12-08T15:48:33.605Z,3.66
2022-12-08T15:51:03.291Z,3.64
2022-12-08T15:53:35.424Z,3.61
2022-12-08T15:58:58.058Z,3.59
2022-12-08T16:01:28.364Z,3.60
2022-12-08T16:07:20.793Z,3.67
2022-12-08T16:09:44.018Z,3.71
2022-12-08T16:12:56.902Z,3.73
2022-12-08T16:15:53.468Z,3.76
2022-12-08T16:18:10.397Z,3.79
2022-12-08T16:21:06.114Z,3.79
2022-12-08T16:23:42.436Z,3.81
2022-12-08T16:26:35.708Z,3.81
2022-12-08T16:29:07.634Z,3.81
2022-12-08T16:31:37.279Z,3.83
2022-12-08T16:34:06.892Z,3.84
2022-12-08T16:36:36.489Z,3.86
2022-12-08T16:39:06.648Z,3.86
2022-12-08T16:41:51.324Z,3.87
2022-12-08T16:44:20.876Z,3.87
2022-12-08T16:46:50.434Z,3.87
2022-12-08T16:49:19.996Z,3.86
2022-12-08T16:51:49.569Z,3.85
2022-12-08T16:54:19.115Z,3.85
2022-12-08T16:56:51.330Z,3.85
2022-12-08T16:59:20.843Z,3.84
2022-12-08T17:01:50.386Z,3.85
2022-12-08T17:04:35.351Z,3.84
2022-12-08T17:07:05.110Z,3.84
2022-12-08T17:09:35.031Z,3.84
2022-12-08T17:12:07.743Z,3.84
2022-12-08T17:14:37.727Z,3.83
2022-12-08T17:17:07.646Z,3.81
2022-12-08T17:19:37.343Z,3.78
2022-12-08T17:22:06.940Z,3.76
2022-12-08T17:24:36.537Z,3.76
2022-12-08T17:27:08.696Z,3.76
2022-12-08T17:29:38.292Z,3.77
2022-12-08T17:32:08.685Z,3.78
2022-12-08T17:34:38.308Z,3.79
2022-12-08T17:37:07.902Z,3.78
2022-12-08T17:39:37.503Z,3.78
2022-12-08T17:42:09.976Z,3.77
2022-12-08T17:44:39.529Z,3.76
2022-12-08T17:47:09.183Z,3.76
2022-12-08T17:49:38.770Z,3.74
2022-12-08T17:52:09.837Z,3.72
2022-12-08T17:54:39.628Z,3.69
2022-12-08T17:57:11.844Z,3.68
2022-12-08T17:59:41.394Z,3.65
2022-12-08T18:02:13.596Z,3.62
2022-12-08T18:04:43.177Z,3.61
2022-12-08T18:07:12.740Z,3.60
2022-12-08T18:09:42.309Z,3.59
2022-12-08T18:12:18.032Z,3.59
2022-12-08T18:14:51.695Z,3.55
2022-12-08T18:17:21.452Z,3.53
2022-12-08T18:19:51.071Z,3.52
2022-12-08T18:22:20.670Z,3.51
2022-12-08T18:24:50.275Z,3.50
2022-12-08T18:27:22.476Z,3.53
2022-12-08T18:29:52.019Z,3.53
2022-12-08T18:32:23.631Z,3.52
2022-12-08T18:34:53.604Z,3.54
2022-12-08T18:37:23.207Z,3.56
2022-12-08T18:39:52.797Z,3.60
2022-12-08T18:42:28.362Z,3.61
2022-12-08T18:45:02.820Z,3.62
2022-12-08T18:47:32.229Z,3.63
2022-12-08T18:50:01.783Z,3.63
2022-12-08T18:52:32.507Z,3.63
2022-12-08T18:55:09.511Z,3.61
2022-12-08T18:57:43.657Z,3.59
2022-12-08T19:00:15.799Z,3.56
2022-12-08T19:02:45.664Z,3.56
2022-12-08T19:05:16.500Z,3.55
2022-12-08T19:07:46.603Z,3.56
2022-12-08T19:10:16.300Z,3.54
2022-12-08T19:12:48.688Z,3.53
2022-12-08T19:15:18.292Z,3.54
2022-12-08T19:17:47.987Z,3.54
2022-12-08T19:20:17.657Z,3.55
2022-12-08T19:22:47.274Z,3.55
2022-12-08T19:25:16.839Z,3.53
2022-12-08T19:27:48.994Z,3.52
2022-12-08T19:30:19.036Z,3.52
2022-12-08T19:32:48.660Z,3.50
2022-12-08T19:35:18.203Z,3.51
2022-12-08T19:37:47.787Z,3.51
2022-12-08T19:40:31.696Z,3.51
2022-12-08T19:43:16.334Z,3.48
2022-12-08T19:45:45.971Z,3.49
2022-12-08T19:48:15.621Z,3.47
2022-12-08T19:50:45.201Z,3.47
2022-12-08T19:53:17.237Z,3.47
2022-12-08T19:55:47.271Z,3.48
2022-12-08T19:58:19.777Z,3.47
2022-12-08T20:00:49.880Z,3.49
2022-12-08T20:03:21.038Z,3.50
2022-12-08T20:05:53.296Z,3.48
2022-12-08T20:08:22.947Z,3.46
2022-12-08T20:10:55.950Z,3.44
2022-12-08T20:13:40.621Z,3.42
2022-12-08T20:16:11.435Z,3.38
2022-12-08T20:18:42.173Z,3.34
2022-12-08T20:21:12.786Z,3.30
2022-12-08T20:23:42.416Z,3.25
2022-12-08T20:26:15.387Z,3.20
2022-12-08T20:28:47.607Z,3.17
2022-12-08T20:31:21.231Z,3.15
2022-12-08T20:33:51.246Z,3.14
2022-12-08T20:36:22.158Z,3.13
2022-12-08T20:38:53.586Z,3.11
2022-12-08T20:41:25.299Z,3.08
2022-12-08T20:43:57.556Z,3.03
2022-12-08T20:46:27.220Z,2.99
2022-12-08T20:49:01.221Z,2.95
2022-12-08T20:51:32.199Z,2.90
2022-12-08T20:54:02.471Z,2.88
2022-12-08T20:56:32.419Z,2.85
2022-12-08T20:59:04.641Z,2.84
2022-12-08T21:01:34.487Z,2.88
2022-12-08T21:04:04.446Z,2.94
2022-12-08T21:06:34.167Z,3.01
2022-12-08T21:09:03.871Z,3.05
2022-12-08T21:11:33.796Z,3.13
2022-12-08T21:14:06.855Z,3.18
2022-12-08T21:16:36.651Z,3.23
2022-12-08T21:19:06.676Z,3.29
2022-12-08T21:21:36.570Z,3.33
2022-12-08T21:24:06.919Z,3.38
2022-12-08T21:26:36.593Z,3.41
2022-12-08T21:29:08.874Z,3.43
2022-12-08T21:31:38.649Z,3.46
2022-12-08T21:34:08.375Z,3.47
2022-12-08T21:36:38.173Z,3.50
2022-12-08T21:39:12.856Z,3.52
2022-12-08T21:41:55.086Z,3.54
2022-12-08T21:44:27.457Z,3.56
2022-12-08T21:46:57.157Z,3.58
2022-12-08T21:49:26.928Z,3.59
2022-12-08T21:51:56.705Z,3.59
2022-12-08T21:54:26.550Z,3.59
2022-12-08T21:56:56.194Z,3.59
2022-12-08T21:59:28.489Z,3.55
2022-12-08T22:01:58.607Z,3.51
2022-12-08T22:04:28.574Z,3.48
2022-12-08T22:06:58.409Z,3.47
2022-12-08T22:09:28.169Z,3.47
2022-12-08T22:11:59.050Z,3.46
2022-12-08T22:14:31.365Z,3.46
2022-12-08T22:17:01.279Z,3.41
2022-12-08T22:19:30.984Z,3.37
2022-12-08T22:22:00.762Z,3.33
2022-12-08T22:24:32.966Z,3.30
2022-12-08T22:27:02.848Z,3.26
2022-12-08T22:29:35.286Z,3.24
2022-12-08T22:32:05.237Z,3.24
2022-12-08T22:34:35.148Z,3.26
2022-12-08T22:37:04.893Z,3.27
2022-12-08T22:39:35.845Z,3.26
2022-12-08T22:42:05.702Z,3.23
2022-12-08T22:44:38.099Z,3.22
2022-12-08T22:47:08.278Z,3.20
2022-12-08T22:49:38.142Z,3.16
2022-12-08T22:52:08.255Z,3.14
2022-12-08T22:54:38.428Z,3.16
2022-12-08T22:57:08.049Z,3.17
2022-12-08T22:59:40.972Z,3.17
2022-12-08T23:02:10.949Z,3.17
2022-12-08T23:04:40.817Z,3.18
2022-12-08T23:07:10.678Z,3.19
2022-12-08T23:09:40.249Z,3.20
2022-12-08T23:12:10.176Z,3.18
2022-12-08T23:14:42.381Z,3.18
2022-12-08T23:17:12.081Z,3.19
2022-12-08T23:19:42.018Z,3.20
2022-12-08T23:22:11.611Z,3.17
2022-12-08T23:24:41.296Z,3.17
2022-12-08T23:27:10.836Z,3.15
2022-12-08T23:29:43.039Z,3.16
2022-12-08T23:32:12.711Z,3.17
2022-12-08T23:34:42.637Z,3.20
2022-12-08T23:37:12.236Z,3.21
2022-12-08T23:39:41.844Z,3.21
2022-12-08T23:42:11.545Z,3.23
2022-12-08T23:44:43.823Z,3.28
2022-12-08T23:47:13.506Z,3.30
2022-12-08T23:49:43.145Z,3.32
2022-12-08T23:52:14.372Z,3.31
2022-12-08T23:54:44.958Z,3.26
2022-12-08T23:57:14.746Z,3.21
2022-12-08T23:59:47.283Z,3.13
